National Weather Service Raw Text Product

Displaying AFOS PIL: TAFOTM Received: 2017-11-15 00:36 UTC


971 
FTUS43 KDMX 150036 AAA
TAFOTM
TAF AMD
KOTM 150036Z 1501/1524 16012KT 2SM -DZ BR OVC003
     FM150400 18009KT 6SM -RA BR OVC004
     FM150800 19008KT 4SM BR VCSH OVC006
     FM151100 26010KT P6SM OVC005
     FM151600 31016G24KT P6SM SKC=